Time;durP1;ratioP1;P1;durP2;ratioP2;P2;SDS_P1;SDS_P2;PMS_P1;PMS_P2;Temp;Humidity;BMP_temperature;BMP_pressure;BME280_temperature;BME280_humidity;BME280_pressure;Samples;Min_cycle;Max_cycle;Signal;HPM_P1;HPM_P2
2022/03/06 00:00:30;;;;;;;16.23;9.70;;;;;;;-1.49;77.38;96204.34;4958068;28;20046;-82
2022/03/06 00:02:56;;;;;;;17.80;9.77;;;;;;;-1.50;77.31;96223.63;4957982;28;20050;-81
2022/03/06 00:05:22;;;;;;;15.90;10.13;;;;;;;-1.61;77.21;96223.66;4975171;28;20410;-83
2022/03/06 00:07:48;;;;;;;13.95;7.68;;;;;;;-1.72;76.91;96222.75;4975115;28;20434;-81
2022/03/06 00:10:13;;;;;;;14.52;8.32;;;;;;;-1.70;77.33;96222.59;4973803;28;20054;-82
2022/03/06 00:12:39;;;;;;;17.83;9.75;;;;;;;-1.78;77.27;96232.88;4974826;28;20043;-82
2022/03/06 00:15:06;;;;;;;16.83;8.55;;;;;;;-1.83;77.12;96228.00;4975124;28;20490;-82
2022/03/06 00:17:32;;;;;;;18.15;9.55;;;;;;;-1.81;76.83;96231.31;4957783;28;20093;-81
2022/03/06 00:19:58;;;;;;;17.35;9.43;;;;;;;-1.77;76.35;96237.13;4974607;28;20054;-82
2022/03/06 00:22:23;;;;;;;15.65;8.90;;;;;;;-1.86;76.06;96246.56;4974920;28;20106;-82
2022/03/06 00:24:49;;;;;;;14.40;8.63;;;;;;;-1.78;76.23;96243.34;4974781;28;20506;-82
2022/03/06 00:27:15;;;;;;;19.77;9.23;;;;;;;-1.83;76.46;96251.56;4974697;28;20039;-82
2022/03/06 00:29:41;;;;;;;17.95;9.77;;;;;;;-1.79;75.96;96254.78;4957437;28;20034;-81
2022/03/06 00:32:07;;;;;;;16.73;9.50;;;;;;;-1.86;75.42;96262.28;4974575;28;20413;-81
2022/03/06 00:34:34;;;;;;;13.48;8.18;;;;;;;-2.00;75.35;96254.69;4974635;28;20117;-80
2022/03/06 00:36:59;;;;;;;16.85;9.95;;;;;;;-2.02;75.11;96272.31;4974495;28;20031;-81
2022/03/06 00:39:25;;;;;;;14.75;8.45;;;;;;;-2.02;75.30;96267.91;4956973;28;20620;-81
2022/03/06 00:41:51;;;;;;;19.08;9.98;;;;;;;-2.00;75.72;96271.22;4974981;28;20051;-81
2022/03/06 00:44:17;;;;;;;19.98;11.13;;;;;;;-2.14;75.45;96278.47;4957602;28;20053;-82
2022/03/06 00:46:43;;;;;;;17.90;11.30;;;;;;;-2.11;75.51;96284.31;4974384;28;20067;-81
2022/03/06 00:49:08;;;;;;;17.10;7.45;;;;;;;-2.05;75.31;96272.53;4974759;28;20414;-82
2022/03/06 00:51:34;;;;;;;19.02;8.50;;;;;;;-2.10;75.13;96270.28;4957621;28;20053;-79
2022/03/06 00:54:00;;;;;;;15.95;10.40;;;;;;;-2.12;75.29;96292.28;4941488;28;20102;-80
2022/03/06 00:56:26;;;;;;;20.42;10.00;;;;;;;-2.16;75.69;96301.34;4974460;28;20063;-80
2022/03/06 00:58:51;;;;;;;17.90;9.73;;;;;;;-2.22;75.22;96277.31;4960249;28;20126;-81
2022/03/06 01:01:17;;;;;;;20.50;10.00;;;;;;;-2.20;75.44;96296.34;4980295;28;20050;-80
2022/03/06 01:03:43;;;;;;;16.92;8.40;;;;;;;-2.21;75.31;96294.69;4979488;28;20047;-80
2022/03/06 01:06:09;;;;;;;18.30;9.05;;;;;;;-2.27;75.66;96299.53;4978257;28;20133;-81
2022/03/06 01:08:35;;;;;;;23.77;11.65;;;;;;;-2.34;75.38;96296.56;4973957;28;20039;-81
2022/03/06 01:11:02;;;;;;;20.08;10.25;;;;;;;-2.31;75.68;96298.94;4973201;28;20054;-79
2022/03/06 01:13:29;;;;;;;26.08;11.15;;;;;;;-2.34;76.01;96296.56;4947125;28;20138;-81
2022/03/06 01:15:55;;;;;;;18.00;9.57;;;;;;;-2.38;75.89;96304.78;4984438;28;20039;-80
2022/03/06 01:18:21;;;;;;;16.15;8.45;;;;;;;-2.38;75.63;96294.31;4959649;28;20487;-80
2022/03/06 01:20:47;;;;;;;18.60;10.30;;;;;;;-2.40;76.13;96297.06;4956998;28;20511;-80
2022/03/06 01:23:13;;;;;;;15.20;7.60;;;;;;;-2.41;75.95;96297.97;4973838;28;20051;-80
2022/03/06 01:25:39;;;;;;;15.65;8.82;;;;;;;-2.46;75.67;96300.13;4974211;28;20046;-80
2022/03/06 01:28:05;;;;;;;19.17;10.52;;;;;;;-2.59;75.88;96309.88;4956956;28;20411;-81
2022/03/06 01:30:31;;;;;;;14.75;8.60;;;;;;;-2.52;75.82;96319.75;4974360;28;20077;-81
2022/03/06 01:32:57;;;;;;;17.30;10.68;;;;;;;-2.62;76.36;96316.16;4975086;28;20042;-82
2022/03/06 01:35:23;;;;;;;17.40;8.55;;;;;;;-2.62;76.52;96300.47;4956970;28;20434;-81
2022/03/06 01:37:49;;;;;;;17.83;8.02;;;;;;;-2.59;75.57;96318.53;4957106;28;20513;-80
2022/03/06 01:40:18;;;;;;;18.75;9.85;;;;;;;-2.63;76.03;96324.97;4956224;28;20462;-81
2022/03/06 01:42:45;;;;;;;17.50;9.95;;;;;;;-2.69;76.20;96305.31;4956595;28;20043;-81
2022/03/06 01:45:13;;;;;;;18.73;10.00;;;;;;;-2.64;75.94;96327.66;4940520;28;20042;-81
2022/03/06 01:47:50;;;;;;;13.75;7.45;;;;;;;-2.64;76.03;96332.91;4956642;28;20043;-81
2022/03/06 01:50:27;;;;;;;16.48;8.52;;;;;;;-2.76;76.04;96322.41;4959074;28;20570;-79
2022/03/06 01:52:54;;;;;;;16.60;9.43;;;;;;;-2.85;75.62;96338.78;4960456;28;20585;-80
2022/03/06 01:55:24;;;;;;;14.27;8.93;;;;;;;-2.77;75.96;96336.44;4960109;28;20063;-80
2022/03/06 01:57:55;;;;;;;19.40;10.70;;;;;;;-2.86;75.87;96339.72;4928712;28;20150;-81
2022/03/06 02:00:24;;;;;;;12.20;7.20;;;;;;;-2.80;76.11;96341.06;4944586;28;20192;-80
2022/03/06 02:02:50;;;;;;;16.35;9.70;;;;;;;-2.91;75.85;96351.47;4944020;28;20046;-80
2022/03/06 02:05:17;;;;;;;16.70;9.15;;;;;;;-2.95;75.87;96330.78;4960255;28;20046;-81
2022/03/06 02:07:43;;;;;;;15.43;9.88;;;;;;;-2.89;75.81;96345.19;4944090;28;20070;-81
2022/03/06 02:10:10;;;;;;;13.95;7.68;;;;;;;-2.92;75.84;96366.31;4960461;28;20086;-81
2022/03/06 02:12:37;;;;;;;20.67;10.77;;;;;;;-2.93;76.00;96364.66;4977313;28;20074;-81
2022/03/06 02:15:06;;;;;;;23.27;12.18;;;;;;;-2.94;76.11;96373.44;4976149;28;20070;-81
2022/03/06 02:17:33;;;;;;;16.55;9.07;;;;;;;-3.04;75.86;96356.78;4959949;28;20403;-80
2022/03/06 02:20:03;;;;;;;14.07;8.55;;;;;;;-2.94;75.71;96379.50;4977376;28;20042;-82
2022/03/06 02:22:35;;;;;;;14.05;7.63;;;;;;;-2.87;75.58;96361.59;4960197;28;20391;-80
2022/03/06 02:25:08;;;;;;;24.08;12.23;;;;;;;-2.93;75.52;96375.13;4944179;28;20387;-80
2022/03/06 02:27:34;;;;;;;13.38;8.50;;;;;;;-2.91;74.96;96375.81;4960230;28;20058;-79
2022/03/06 02:30:03;;;;;;;23.63;11.90;;;;;;;-2.97;75.32;96384.09;4977172;28;20068;-77
2022/03/06 02:32:29;;;;;;;17.40;9.68;;;;;;;-2.97;75.37;96379.75;4960845;28;20042;-81
2022/03/06 02:34:55;;;;;;;23.20;10.70;;;;;;;-2.92;74.98;96392.47;4977789;28;20046;-79
2022/03/06 02:37:21;;;;;;;22.05;10.57;;;;;;;-2.80;75.33;96402.00;4977380;28;20050;-80
2022/03/06 02:39:48;;;;;;;21.88;11.75;;;;;;;-2.83;74.99;96404.84;4977194;28;20078;-79
2022/03/06 02:42:29;;;;;;;22.33;11.40;;;;;;;-2.72;75.22;96415.34;4959448;28;20054;-79
2022/03/06 02:44:56;;;;;;;23.88;12.52;;;;;;;-2.78;74.60;96415.81;4976617;28;20042;-79
2022/03/06 02:47:23;;;;;;;23.75;11.82;;;;;;;-2.59;74.50;96424.94;4943398;28;20047;-78
2022/03/06 02:49:49;;;;;;;24.52;11.65;;;;;;;-2.57;74.52;96417.78;4943393;28;20092;-79
2022/03/06 02:52:15;;;;;;;20.77;10.05;;;;;;;-2.60;74.28;96426.69;4943150;28;20459;-80
2022/03/06 02:54:41;;;;;;;19.95;10.43;;;;;;;-2.51;74.38;96440.88;4942943;28;20102;-79
2022/03/06 02:57:08;;;;;;;21.73;11.98;;;;;;;-2.52;74.36;96432.19;4975218;28;20066;-80
2022/03/06 02:59:35;;;;;;;27.98;12.45;;;;;;;-2.46;73.90;96436.13;4976924;28;20057;-79
2022/03/06 03:02:01;;;;;;;13.98;7.88;;;;;;;-2.51;73.51;96453.94;4974626;28;20038;-81
2022/03/06 03:04:27;;;;;;;23.27;10.50;;;;;;;-2.47;73.54;96451.00;4976314;28;20046;-82
2022/03/06 03:06:53;;;;;;;21.52;10.80;;;;;;;-2.47;73.30;96460.63;4992788;28;20043;-80
2022/03/06 03:09:20;;;;;;;16.23;10.02;;;;;;;-2.43;73.60;96450.78;4995362;28;20129;-80
2022/03/06 03:11:50;;;;;;;22.50;10.90;;;;;;;-2.42;73.27;96468.13;4946184;28;20066;-79
2022/03/06 03:14:17;;;;;;;18.20;10.15;;;;;;;-2.49;73.47;96470.34;4962582;28;20045;-77
2022/03/06 03:16:43;;;;;;;17.38;9.20;;;;;;;-2.40;73.30;96461.84;4978008;28;20137;-80
2022/03/06 03:19:09;;;;;;;18.67;11.02;;;;;;;-2.32;73.51;96469.94;4995554;28;20134;-78
2022/03/06 03:21:35;;;;;;;21.73;9.95;;;;;;;-2.15;73.45;96470.47;4977875;28;20038;-79
2022/03/06 03:24:01;;;;;;;19.02;10.13;;;;;;;-2.19;72.69;96485.56;4961710;28;20712;-79
2022/03/06 03:26:27;;;;;;;21.55;11.35;;;;;;;-2.15;72.47;96491.41;4977935;28;20054;-79
2022/03/06 03:28:52;;;;;;;18.77;10.60;;;;;;;-2.27;73.03;96495.75;4978089;28;20133;-81
2022/03/06 03:31:19;;;;;;;21.95;11.27;;;;;;;-2.13;72.82;96519.13;4945857;28;20049;-80
2022/03/06 03:33:45;;;;;;;18.50;10.13;;;;;;;-2.02;72.43;96513.09;4994965;28;20054;-78
2022/03/06 03:36:12;;;;;;;21.05;9.93;;;;;;;-2.04;72.50;96515.81;4995122;28;20050;-82
2022/03/06 03:38:40;;;;;;;21.90;10.57;;;;;;;-2.14;73.17;96524.47;4962218;28;20101;-79
2022/03/06 03:41:07;;;;;;;25.42;12.00;;;;;;;-2.06;73.48;96519.53;4995194;28;20046;-78
2022/03/06 03:43:33;;;;;;;20.48;12.32;;;;;;;-2.06;73.21;96512.50;4962235;28;20046;-83
2022/03/06 03:45:59;;;;;;;17.88;10.55;;;;;;;-1.88;73.42;96519.91;4961837;28;20049;-78
2022/03/06 03:48:29;;;;;;;22.38;9.35;;;;;;;-1.68;75.56;96536.75;4995693;28;20042;-84
2022/03/06 03:50:56;;;;;;;18.90;11.23;;;;;;;-1.36;75.71;96537.72;4978839;28;20521;-82
2022/03/06 03:53:22;;;;;;;18.67;10.95;;;;;;;-0.97;74.20;96538.22;4961552;28;20081;-85
2022/03/06 03:55:49;;;;;;;21.60;11.13;;;;;;;-1.20;71.73;96528.69;4977694;28;20058;-81
2022/03/06 03:58:15;;;;;;;21.77;10.45;;;;;;;-1.34;70.95;96546.31;4995386;28;20042;-78
2022/03/06 04:00:45;;;;;;;24.25;10.90;;;;;;;-1.38;71.37;96560.63;4999611;28;20056;-84
2022/03/06 04:03:13;;;;;;;22.85;11.38;;;;;;;-1.32;71.40;96560.13;5004379;28;20050;-87
2022/03/06 04:05:39;;;;;;;35.13;10.93;;;;;;;-1.37;71.24;96562.28;4978760;28;20046;-83
2022/03/06 04:08:05;;;;;;;15.25;8.88;;;;;;;-1.45;70.86;96569.06;5013601;28;20038;-83
2022/03/06 04:10:31;;;;;;;10.60;7.25;;;;;;;-1.57;71.29;96565.59;4988116;28;20454;-82
2022/03/06 04:12:57;;;;;;;14.18;7.63;;;;;;;-1.48;71.04;96577.97;4994361;28;20038;-85
2022/03/06 04:15:23;;;;;;;14.27;7.88;;;;;;;-1.59;71.94;96570.09;4961695;28;20459;-87
2022/03/06 04:17:49;;;;;;;21.67;8.73;;;;;;;-1.58;71.93;96579.63;4977562;28;20046;-80
2022/03/06 04:20:15;;;;;;;19.27;8.32;;;;;;;-1.41;71.81;96581.81;4994923;28;20125;-85
2022/03/06 04:22:41;;;;;;;12.10;8.15;;;;;;;-1.57;71.81;96597.84;4994268;28;20066;-83
2022/03/06 04:25:07;;;;;;;25.30;8.82;;;;;;;-1.50;71.73;96603.47;4994245;28;20449;-82
2022/03/06 04:27:32;;;;;;;18.77;8.88;;;;;;;-1.58;71.40;96600.56;4976697;28;20038;-85
2022/03/06 04:29:58;;;;;;;15.65;7.25;;;;;;;-1.52;71.79;96621.06;4962001;28;20076;-89
2022/03/06 04:32:24;;;;;;;14.05;8.57;;;;;;;-1.40;71.77;96625.38;4994474;28;20038;-85
2022/03/06 04:34:51;;;;;;;16.23;7.50;;;;;;;-1.34;70.94;96619.69;4975854;28;20081;-84
2022/03/06 04:37:17;;;;;;;16.65;8.75;;;;;;;-1.25;71.38;96618.97;4995388;28;20053;-85
2022/03/06 04:39:42;;;;;;;14.63;6.93;;;;;;;-1.36;70.09;96610.28;4960562;28;20042;-83
2022/03/06 04:42:09;;;;;;;13.93;7.97;;;;;;;-1.26;70.04;96609.47;4976776;28;20050;-89
2022/03/06 04:44:35;;;;;;;13.45;7.45;;;;;;;-1.14;69.98;96609.47;4961037;28;20085;-88
2022/03/06 04:47:00;;;;;;;15.55;7.90;;;;;;;-1.09;69.04;96616.06;4994734;28;20128;-93
2022/03/06 04:49:26;;;;;;;11.52;7.38;;;;;;;-1.15;69.53;96634.84;4994535;28;20069;-92
2022/03/06 04:51:52;;;;;;;7.68;6.15;;;;;;;-1.20;68.53;96638.75;4996045;28;20039;-84
2022/03/06 04:54:20;;;;;;;9.73;6.45;;;;;;;-1.00;68.67;96643.34;4994545;28;20430;-86
2022/03/06 04:56:47;;;;;;;8.73;5.97;;;;;;;-0.83;66.65;96657.75;5006406;28;20042;-83
2022/03/06 04:59:12;;;;;;;11.07;6.40;;;;;;;-0.92;66.38;96664.56;4963119;28;20062;-84
2022/03/06 05:01:38;;;;;;;8.95;5.78;;;;;;;-0.80;66.66;96658.38;4980694;28;20053;-85
2022/03/06 05:04:04;;;;;;;13.15;6.28;;;;;;;-0.63;65.98;96683.31;4996031;28;20458;-89
2022/03/06 05:06:30;;;;;;;7.72;5.00;;;;;;;-0.95;64.90;96683.13;4995039;28;20089;-83
2022/03/06 05:08:56;;;;;;;9.98;6.28;;;;;;;-1.12;66.39;96676.56;4994158;28;20052;-85
2022/03/06 05:11:23;;;;;;;11.02;7.25;;;;;;;-0.91;66.41;96683.75;4976493;28;20060;-83
2022/03/06 05:13:51;;;;;;;10.73;6.85;;;;;;;-0.75;66.44;96679.84;4993743;28;20089;-85
2022/03/06 05:16:17;;;;;;;11.00;6.80;;;;;;;-0.59;66.12;96694.41;4993737;28;20282;-84
2022/03/06 05:18:43;;;;;;;6.65;4.35;;;;;;;-0.53;66.12;96693.91;4976615;28;20081;-85
2022/03/06 05:21:09;;;;;;;11.68;6.28;;;;;;;-0.64;65.91;96692.13;4993826;28;20072;-83
2022/03/06 05:23:35;;;;;;;11.32;5.75;;;;;;;-0.71;66.15;96695.31;4995089;28;20141;-92
2022/03/06 05:26:01;;;;;;;7.70;4.05;;;;;;;-0.77;66.01;96707.97;4965366;28;20038;-90
2022/03/06 05:28:27;;;;;;;5.25;4.25;;;;;;;-0.82;65.88;96720.59;5003549;28;20138;-92
2022/03/06 05:30:53;;;;;;;7.18;4.95;;;;;;;-0.95;65.17;96708.53;4964393;28;20048;-91
2022/03/06 05:33:19;;;;;;;5.65;3.97;;;;;;;-0.87;64.67;96714.84;4999837;28;20474;-86
2022/03/06 05:35:46;;;;;;;7.93;4.43;;;;;;;-0.70;63.75;96731.13;4997722;28;20049;-83
2022/03/06 05:38:12;;;;;;;6.00;3.78;;;;;;;-1.08;64.25;96740.09;4997319;28;20046;-87
2022/03/06 05:40:39;;;;;;;2.70;2.42;;;;;;;-1.76;65.87;96763.38;4997228;28;20042;-87
2022/03/06 05:43:05;;;;;;;3.38;2.38;;;;;;;-2.19;68.02;96773.41;4996988;28;20050;-86
2022/03/06 05:45:31;;;;;;;2.63;2.33;;;;;;;-2.43;68.53;96769.88;4996951;28;20038;-82
2022/03/06 05:47:58;;;;;;;2.28;2.08;;;;;;;-2.62;69.27;96786.84;4997690;28;20046;-85
2022/03/06 05:50:24;;;;;;;6.65;2.88;;;;;;;-2.49;69.65;96768.53;5000698;28;20043;-84
2022/03/06 05:52:50;;;;;;;3.38;2.80;;;;;;;-2.47;69.45;96780.56;4997870;28;20496;-84
2022/03/06 05:55:16;;;;;;;3.53;2.65;;;;;;;-2.43;69.29;96778.56;4997234;28;20058;-85
2022/03/06 05:57:42;;;;;;;4.28;2.20;;;;;;;-2.31;68.91;96790.78;4997204;28;20414;-85
2022/03/06 06:00:08;;;;;;;3.00;2.20;;;;;;;-2.17;68.46;96787.22;4997141;28;20046;-84
2022/03/06 06:02:36;;;;;;;5.40;3.00;;;;;;;-2.08;68.24;96804.06;4963550;28;20042;-85
2022/03/06 06:05:04;;;;;;;4.03;2.60;;;;;;;-2.03;67.84;96799.34;4963563;28;20038;-83
2022/03/06 06:07:30;;;;;;;3.88;2.22;;;;;;;-2.13;67.12;96787.84;4963608;28;20042;-83
2022/03/06 06:09:56;;;;;;;2.78;2.22;;;;;;;-1.98;66.91;96787.63;4980195;28;20046;-83
2022/03/06 06:12:21;;;;;;;3.28;2.78;;;;;;;-1.77;66.64;96785.28;4997608;28;20446;-82
2022/03/06 06:14:48;;;;;;;3.13;2.83;;;;;;;-1.36;66.10;96789.28;4948466;28;20054;-83
2022/03/06 06:17:14;;;;;;;5.18;3.05;;;;;;;-1.27;64.59;96803.53;4980639;28;20177;-84
2022/03/06 06:19:40;;;;;;;2.55;2.35;;;;;;;-0.85;62.58;96796.88;4947720;28;20104;-84
2022/03/06 06:22:06;;;;;;;2.92;2.42;;;;;;;-0.39;61.85;96790.78;4979815;28;20058;-85
2022/03/06 06:24:31;;;;;;;7.78;3.55;;;;;;;-0.15;60.83;96777.56;4997125;28;20482;-82
2022/03/06 06:26:57;;;;;;;4.38;2.72;;;;;;;0.39;59.87;96792.56;4997020;28;20520;-84
2022/03/06 06:29:23;;;;;;;3.47;2.47;;;;;;;0.38;58.19;96790.88;4997407;28;20524;-83
2022/03/06 06:31:51;;;;;;;3.78;2.28;;;;;;;0.11;59.07;96788.63;4979853;28;20049;-84
2022/03/06 06:34:17;;;;;;;4.07;2.33;;;;;;;-0.03;59.24;96797.59;4965024;28;20069;-83
2022/03/06 06:36:43;;;;;;;5.07;3.25;;;;;;;0.02;59.22;96809.53;4962654;28;20074;-84
2022/03/06 06:39:12;;;;;;;3.25;2.47;;;;;;;-0.46;59.08;96804.47;4978756;28;20560;-83
2022/03/06 06:41:42;;;;;;;3.60;2.58;;;;;;;-0.95;60.41;96835.22;4996094;28;20046;-80
2022/03/06 06:44:09;;;;;;;3.85;2.72;;;;;;;-1.14;61.22;96840.97;4978901;28;20049;-83
2022/03/06 06:46:35;;;;;;;3.17;2.63;;;;;;;-1.07;61.08;96846.63;4962496;28;20050;-83
2022/03/06 06:49:03;;;;;;;3.28;2.50;;;;;;;-1.19;61.21;96848.34;4978909;28;20034;-85
2022/03/06 06:51:30;;;;;;;3.90;2.85;;;;;;;-1.14;60.89;96854.09;4978827;28;20092;-83
2022/03/06 06:53:56;;;;;;;4.97;3.03;;;;;;;-1.29;60.67;96847.34;4996297;28;20042;-84
2022/03/06 06:56:23;;;;;;;3.35;2.72;;;;;;;-1.12;61.66;96856.63;4996416;28;20115;-84
2022/03/06 06:58:49;;;;;;;5.18;3.03;;;;;;;-0.95;60.54;96871.94;4962955;28;20447;-84
2022/03/06 07:01:18;;;;;;;3.40;2.78;;;;;;;-1.75;61.56;96880.25;4979048;28;20126;-83
2022/03/06 07:03:44;;;;;;;3.13;2.78;;;;;;;-1.52;61.97;96896.16;4996143;28;20038;-83
2022/03/06 07:06:10;;;;;;;2.85;2.55;;;;;;;-1.63;61.55;96888.19;4978357;28;20061;-84
2022/03/06 07:08:36;;;;;;;4.47;2.47;;;;;;;-1.88;61.36;96892.53;4962160;28;20410;-84
2022/03/06 07:11:02;;;;;;;2.50;1.90;;;;;;;-2.14;62.32;96880.38;4995485;28;20057;-84
2022/03/06 07:13:28;;;;;;;4.93;2.45;;;;;;;-2.05;62.92;96879.78;4978082;28;20046;-84
2022/03/06 07:15:53;;;;;;;3.75;2.08;;;;;;;-2.15;63.03;96883.94;4962311;28;20438;-81
2022/03/06 07:18:19;;;;;;;2.65;2.20;;;;;;;-2.14;62.18;96890.84;4978075;28;20445;-87
2022/03/06 07:20:45;;;;;;;4.40;2.70;;;;;;;-2.02;62.33;96885.63;4977878;28;20060;-84
2022/03/06 07:23:11;;;;;;;2.33;2.13;;;;;;;-2.20;62.05;96892.94;4962344;28;20046;-84
2022/03/06 07:25:37;;;;;;;5.15;2.45;;;;;;;-2.41;62.15;96883.94;4996174;28;20042;-84
2022/03/06 07:28:03;;;;;;;6.57;3.10;;;;;;;-2.54;62.80;96904.00;4979406;28;20042;-84
2022/03/06 07:30:29;;;;;;;6.45;2.83;;;;;;;-2.32;62.28;96943.50;4963311;28;20045;-84
2022/03/06 07:32:55;;;;;;;7.00;2.47;;;;;;;-2.20;62.21;96919.13;4979555;28;20050;-84
2022/03/06 07:35:22;;;;;;;3.63;2.83;;;;;;;-2.20;61.88;96940.06;4995593;28;20162;-83
2022/03/06 07:37:48;;;;;;;5.40;2.40;;;;;;;-2.11;60.63;96943.00;4995222;28;20046;-84
2022/03/06 07:40:17;;;;;;;4.70;3.10;;;;;;;-2.25;61.25;96952.63;4977439;28;20049;-83
2022/03/06 07:42:43;;;;;;;5.10;3.35;;;;;;;-2.20;61.14;96947.91;4995062;28;20522;-83
2022/03/06 07:45:10;;;;;;;4.50;3.08;;;;;;;-2.16;61.10;96950.31;4961868;28;20042;-85
2022/03/06 07:47:36;;;;;;;5.10;3.45;;;;;;;-1.90;60.46;96975.59;4977447;28;20058;-84
2022/03/06 07:50:04;;;;;;;11.98;3.35;;;;;;;-1.76;60.25;96959.78;4978425;28;20607;-84
2022/03/06 07:52:30;;;;;;;3.03;2.50;;;;;;;-1.88;59.28;96968.47;4995339;28;20128;-83
2022/03/06 07:54:56;;;;;;;5.18;2.38;;;;;;;-2.01;59.60;96975.47;4961419;28;20114;-83
2022/03/06 07:57:22;;;;;;;3.83;2.63;;;;;;;-1.93;59.99;96978.41;4994958;28;20057;-83
2022/03/06 07:59:48;;;;;;;6.57;3.20;;;;;;;-1.71;58.69;96989.09;4995311;28;20414;-85
2022/03/06 08:02:13;;;;;;;2.80;2.40;;;;;;;-1.90;59.02;96983.44;4977371;28;20052;-85
2022/03/06 08:04:39;;;;;;;5.63;3.13;;;;;;;-2.02;59.21;96984.28;4978002;28;20038;-84
2022/03/06 08:07:05;;;;;;;3.83;2.53;;;;;;;-2.25;58.95;97004.97;4977720;28;20505;-84
2022/03/06 08:09:31;;;;;;;3.38;2.83;;;;;;;-1.97;59.08;96987.41;4977801;28;20042;-84
2022/03/06 08:11:57;;;;;;;5.78;3.13;;;;;;;-1.71;58.89;96996.94;4994902;28;20043;-83
2022/03/06 08:14:23;;;;;;;7.05;3.03;;;;;;;-1.82;57.80;96991.59;4995901;28;20569;-85
2022/03/06 08:16:48;;;;;;;3.63;2.67;;;;;;;-1.92;58.24;97003.63;4996137;28;20130;-85
2022/03/06 08:19:17;;;;;;;5.65;2.70;;;;;;;-1.98;58.92;96993.59;4995821;28;20050;-86
2022/03/06 08:21:43;;;;;;;3.95;3.22;;;;;;;-1.82;59.41;96980.28;4995766;28;20406;-82
2022/03/06 08:24:08;;;;;;;4.32;2.88;;;;;;;-1.83;58.49;96995.19;4995119;28;20430;-82
2022/03/06 08:26:34;;;;;;;2.92;2.55;;;;;;;-1.41;57.34;97000.19;4962050;28;20053;-84
2022/03/06 08:29:00;;;;;;;5.90;3.25;;;;;;;-0.94;56.27;97010.00;4961880;28;20042;-85
2022/03/06 08:31:26;;;;;;;3.72;2.88;;;;;;;-0.90;56.38;97021.94;4994785;28;20073;-82
2022/03/06 08:33:53;;;;;;;5.43;3.10;;;;;;;-0.95;56.11;97010.91;4994369;28;20049;-83
2022/03/06 08:36:20;;;;;;;4.55;3.05;;;;;;;-0.84;54.79;97033.75;4976850;28;20069;-84
2022/03/06 08:38:46;;;;;;;6.47;3.38;;;;;;;-0.92;55.48;97022.97;4960455;28;20064;-85
2022/03/06 08:41:12;;;;;;;7.20;3.70;;;;;;;-0.75;54.74;97036.59;4997589;28;20110;-84
2022/03/06 08:43:38;;;;;;;2.53;2.30;;;;;;;-0.71;55.01;97036.34;4984689;28;20042;-82
2022/03/06 08:46:03;;;;;;;5.95;3.08;;;;;;;-0.87;54.74;97039.22;4998838;28;20046;-85
2022/03/06 08:48:30;;;;;;;4.00;3.20;;;;;;;-1.19;55.68;97036.25;4995075;28;20409;-81
2022/03/06 08:50:57;;;;;;;5.20;3.33;;;;;;;-1.31;56.46;97054.50;4960285;28;20046;-84
2022/03/06 08:53:23;;;;;;;5.03;3.30;;;;;;;-1.28;56.55;97043.81;4993284;28;20514;-83
2022/03/06 08:55:49;;;;;;;6.07;3.13;;;;;;;-1.36;55.75;97064.44;4975827;28;20077;-84
2022/03/06 08:58:15;;;;;;;5.72;2.80;;;;;;;-1.54;56.75;97047.38;4960362;28;20413;-88
2022/03/06 09:00:41;;;;;;;5.50;3.28;;;;;;;-1.68;57.09;97060.56;4960372;28;20505;-86
2022/03/06 09:03:06;;;;;;;6.18;3.20;;;;;;;-1.96;57.96;97052.78;4943822;28;20042;-86
2022/03/06 09:05:33;;;;;;;6.70;3.58;;;;;;;-1.87;57.89;97061.78;4959922;28;20045;-86
2022/03/06 09:08:00;;;;;;;3.22;2.88;;;;;;;-2.21;58.66;97084.09;4978044;28;20050;-84
2022/03/06 09:10:26;;;;;;;6.45;3.25;;;;;;;-2.09;59.43;97072.00;4977975;28;20120;-87
2022/03/06 09:12:51;;;;;;;8.38;3.33;;;;;;;-1.69;57.72;97070.19;4960469;28;20501;-82
2022/03/06 09:15:18;;;;;;;6.68;4.10;;;;;;;-1.79;57.08;97083.06;4975983;28;20223;-79
2022/03/06 09:17:44;;;;;;;4.93;2.97;;;;;;;-2.07;57.69;97083.19;4975811;28;20042;-81
2022/03/06 09:20:10;;;;;;;6.13;4.18;;;;;;;-1.66;57.69;97087.47;4993096;28;20054;-80
2022/03/06 09:22:36;;;;;;;4.82;2.90;;;;;;;-1.71;56.57;97096.47;4992791;28;20050;-82
2022/03/06 09:25:02;;;;;;;7.72;3.45;;;;;;;-1.85;56.51;97091.31;4976018;28;20513;-81
2022/03/06 09:27:29;;;;;;;9.02;3.58;;;;;;;-1.94;56.75;97102.41;4976309;28;20050;-82
2022/03/06 09:29:54;;;;;;;4.60;2.97;;;;;;;-2.48;57.35;97112.88;4975669;28;20141;-81
2022/03/06 09:32:20;;;;;;;3.88;3.20;;;;;;;-2.71;57.64;97102.09;4975929;28;20045;-83
2022/03/06 09:34:46;;;;;;;4.63;3.00;;;;;;;-2.53;57.80;97101.84;4993195;28;20482;-83
2022/03/06 09:37:12;;;;;;;10.00;3.85;;;;;;;-2.60;58.15;97108.41;4993361;28;20137;-83
2022/03/06 09:39:38;;;;;;;6.15;3.78;;;;;;;-2.49;57.94;97121.63;4943840;28;20414;-84
2022/03/06 09:42:04;;;;;;;10.00;3.88;;;;;;;-2.08;56.54;97123.41;4959969;28;20050;-86
2022/03/06 09:44:31;;;;;;;4.10;2.75;;;;;;;-2.39;56.29;97127.97;4993061;28;20129;-86
2022/03/06 09:46:58;;;;;;;4.28;2.50;;;;;;;-2.75;57.15;97131.94;4992815;28;20050;-83
2022/03/06 09:49:25;;;;;;;5.30;3.05;;;;;;;-2.74;57.18;97122.34;4959678;28;20061;-84
2022/03/06 09:51:51;;;;;;;4.88;3.40;;;;;;;-2.71;57.75;97143.06;4943876;28;20050;-81
2022/03/06 09:54:16;;;;;;;5.53;3.20;;;;;;;-2.78;57.37;97128.72;4975785;28;20548;-81
2022/03/06 09:56:44;;;;;;;5.70;3.55;;;;;;;-2.89;58.74;97157.28;4993009;28;20119;-83
2022/03/06 09:59:10;;;;;;;4.03;2.80;;;;;;;-3.45;59.68;97157.13;4959486;28;20047;-81
2022/03/06 10:01:37;;;;;;;8.40;4.60;;;;;;;-3.24;59.55;97144.53;4975719;28;20065;-84
2022/03/06 10:04:24;;;;;;;5.47;3.67;;;;;;;-3.46;59.81;97184.16;4976391;28;20038;-83
2022/03/06 10:07:01;;;;;;;4.00;2.90;;;;;;;-3.83;60.72;97194.13;4959699;28;20046;-83
2022/03/06 10:09:28;;;;;;;5.30;3.22;;;;;;;-3.33;60.36;97182.50;4975485;28;20101;-83
2022/03/06 10:11:54;;;;;;;8.13;4.10;;;;;;;-3.71;60.16;97176.91;4996498;28;20125;-83
2022/03/06 10:14:33;;;;;;;5.25;3.67;;;;;;;-3.60;60.25;97195.41;4996318;28;20046;-83
2022/03/06 10:17:17;;;;;;;5.90;2.90;;;;;;;-3.39;59.77;97177.63;4996628;28;20089;-82
2022/03/06 10:20:06;;;;;;;3.90;3.05;;;;;;;-3.09;58.69;97185.44;4947082;28;20046;-83
2022/03/06 10:22:41;;;;;;;3.97;3.08;;;;;;;-2.98;58.61;97187.41;4996411;28;20161;-83
2022/03/06 10:25:21;;;;;;;5.35;3.05;;;;;;;-2.66;56.76;97188.09;4962832;28;20042;-83
2022/03/06 10:27:57;;;;;;;4.68;3.50;;;;;;;-3.22;58.13;97218.47;4996473;28;20124;-85
2022/03/06 10:30:35;;;;;;;3.88;3.15;;;;;;;-3.26;57.79;97240.47;4946851;28;20410;-83
2022/03/06 10:33:03;;;;;;;3.38;2.80;;;;;;;-3.42;58.29;97214.41;4978565;28;20156;-83
2022/03/06 10:35:35;;;;;;;5.93;2.50;;;;;;;-3.09;57.45;97244.72;4996370;28;20053;-84
2022/03/06 10:38:15;;;;;;;5.43;3.22;;;;;;;-3.09;57.04;97221.19;4946847;28;20046;-83
2022/03/06 10:40:41;;;;;;;3.63;2.75;;;;;;;-2.88;56.39;97219.91;4963289;28;20046;-85
2022/03/06 10:43:21;;;;;;;4.50;2.67;;;;;;;-2.85;56.38;97222.34;4979056;28;20050;-82
2022/03/06 10:45:49;;;;;;;4.03;3.10;;;;;;;-2.56;55.58;97235.44;4978382;28;20034;-82
2022/03/06 10:48:15;;;;;;;4.95;3.00;;;;;;;-2.56;55.50;97248.50;4978671;28;20050;-83
2022/03/06 10:50:41;;;;;;;5.13;3.83;;;;;;;-2.59;55.18;97260.00;4978803;28;20042;-83
2022/03/06 10:53:21;;;;;;;7.30;4.03;;;;;;;-2.62;55.83;97246.28;4995665;28;20053;-82
2022/03/06 10:55:47;;;;;;;4.63;3.25;;;;;;;-2.44;55.48;97245.16;4962628;28;20062;-82
2022/03/06 10:58:13;;;;;;;5.15;3.42;;;;;;;-2.78;54.03;97262.91;4962525;28;20039;-84
2022/03/06 11:00:40;;;;;;;3.40;2.92;;;;;;;-2.66;55.08;97273.56;4963068;28;20046;-83
2022/03/06 11:03:07;;;;;;;7.03;3.53;;;;;;;-2.81;55.07;97273.53;4978616;28;20561;-82
2022/03/06 11:05:34;;;;;;;2.65;2.45;;;;;;;-2.76;54.25;97284.53;4978415;28;20445;-85
2022/03/06 11:08:02;;;;;;;3.45;2.92;;;;;;;-2.87;55.55;97288.72;4995718;28;20050;-84
2022/03/06 11:10:28;;;;;;;3.05;2.72;;;;;;;-2.52;54.79;97289.22;4978347;28;20046;-84
2022/03/06 11:12:54;;;;;;;4.38;2.80;;;;;;;-2.70;54.15;97312.13;4962303;28;20034;-83
2022/03/06 11:15:20;;;;;;;12.38;3.40;;;;;;;-2.18;54.46;97297.66;4995532;28;20085;-83
2022/03/06 11:17:46;;;;;;;8.20;3.95;;;;;;;-1.85;53.18;97292.09;4962314;28;20046;-83
2022/03/06 11:20:12;;;;;;;5.95;2.47;;;;;;;-1.90;52.28;97299.41;4995626;28;20034;-84
2022/03/06 11:22:52;;;;;;;3.45;2.92;;;;;;;-1.50;51.66;97318.72;4945530;28;20046;-84
2022/03/06 11:25:23;;;;;;;;;;;;;;;-1.49;52.19;97299.41;4996602;28;20054;-85
2022/03/06 11:28:47;;;;;;;4.40;3.25;;;;;;;-1.40;50.36;97326.81;4962713;28;20024;-83